Terminal Aerodrome Forecast
Issued by NWS

Current Version | Previous Version | Graphics & Text | Print | Product List | Glossary On
Versions: 1 2 3 4 5 6 7 8 9 10 11 12 13 14 15
000
FTUS41 KPBZ 211136
TAFMGW
TAF
KMGW 211136Z 2112/2212 19005KT P6SM BKN025
     FM211500 22007KT P6SM VCSH OVC015
     FM220300 21004KT 6SM -DZ OVC008=

USA.gov is the U.S. government's official web portal to all federal, state and local government web resources and services.